createdAt,value
2023-01-22T00:01:31.836Z,0.67
2023-01-22T00:03:59.177Z,0.73
2023-01-22T00:06:26.060Z,0.65
2023-01-22T00:08:52.919Z,0.65
2023-01-22T00:11:19.897Z,0.67
2023-01-22T00:13:46.986Z,0.69
2023-01-22T00:16:15.320Z,0.62
2023-01-22T00:18:42.314Z,0.60
2023-01-22T00:21:09.299Z,0.67
2023-01-22T00:23:36.239Z,0.60
2023-01-22T00:26:04.442Z,0.62
2023-01-22T00:28:31.547Z,0.65
2023-01-22T00:31:02.079Z,0.64
2023-01-22T00:33:29.067Z,0.69
2023-01-22T00:35:56.073Z,0.64
2023-01-22T00:38:22.875Z,0.65
2023-01-22T00:40:49.665Z,0.63
2023-01-22T00:43:16.501Z,0.62
2023-01-22T00:45:43.255Z,0.54
2023-01-22T00:48:10.133Z,0.65
2023-01-22T00:50:36.973Z,0.60
2023-01-22T00:53:04.167Z,0.61
2023-01-22T00:55:31.239Z,0.57
2023-01-22T00:57:58.071Z,0.59
2023-01-22T01:00:24.831Z,0.52
2023-01-22T01:03:10.062Z,0.50
2023-01-22T01:05:36.929Z,0.53
2023-01-22T01:08:03.814Z,0.57
2023-01-22T01:10:30.601Z,0.52
2023-01-22T01:12:57.376Z,0.58
2023-01-22T01:15:24.536Z,0.58
2023-01-22T01:17:51.394Z,0.50
2023-01-22T01:20:18.593Z,0.53
2023-01-22T01:22:45.493Z,0.53
2023-01-22T01:25:12.337Z,0.50
2023-01-22T01:27:39.292Z,0.48
2023-01-22T01:30:06.911Z,0.53
2023-01-22T01:32:33.734Z,0.53
2023-01-22T01:35:00.558Z,0.54
2023-01-22T01:37:27.352Z,0.52
2023-01-22T01:39:54.235Z,0.48
2023-01-22T01:42:30.498Z,0.51
2023-01-22T01:45:19.987Z,0.55
2023-01-22T01:47:47.513Z,0.52
2023-01-22T01:50:17.903Z,0.54
2023-01-22T01:52:45.093Z,0.53
2023-01-22T01:55:12.001Z,0.47
2023-01-22T01:57:38.832Z,0.48
2023-01-22T02:00:10.555Z,0.48
2023-01-22T02:02:37.414Z,0.49
2023-01-22T02:05:05.113Z,0.45
2023-01-22T02:07:31.892Z,0.47
2023-01-22T02:09:58.652Z,0.53
2023-01-22T02:12:25.433Z,0.53
2023-01-22T02:14:52.195Z,0.48
2023-01-22T02:17:20.597Z,0.57
2023-01-22T02:19:47.473Z,0.49
2023-01-22T02:22:15.548Z,0.54
2023-01-22T02:24:42.454Z,0.56
2023-01-22T02:27:09.374Z,0.57
2023-01-22T02:29:36.224Z,0.59
2023-01-22T02:32:03.032Z,0.55
2023-01-22T02:34:29.896Z,0.56
2023-01-22T02:36:56.785Z,0.58
2023-01-22T02:39:23.680Z,0.59
2023-01-22T02:41:50.645Z,0.55
2023-01-22T02:44:17.975Z,0.53
2023-01-22T02:46:44.818Z,0.59
2023-01-22T02:49:11.639Z,0.56
2023-01-22T02:51:38.493Z,0.59
2023-01-22T02:54:05.441Z,0.60
2023-01-22T02:56:33.785Z,0.59
2023-01-22T02:59:01.873Z,0.55
2023-01-22T03:01:28.732Z,0.55
2023-01-22T03:04:01.639Z,0.55
2023-01-22T03:06:29.518Z,0.51
2023-01-22T03:09:00.125Z,0.60
2023-01-22T03:11:28.303Z,0.55
2023-01-22T03:14:13.680Z,0.62
2023-01-22T03:16:59.475Z,0.55
2023-01-22T03:19:44.639Z,0.62
2023-01-22T03:22:11.553Z,0.61
2023-01-22T03:24:38.361Z,0.61
2023-01-22T03:27:05.172Z,0.63
2023-01-22T03:29:31.980Z,0.63
2023-01-22T03:31:58.777Z,0.65
2023-01-22T03:34:25.882Z,0.58
2023-01-22T03:36:52.653Z,0.61
2023-01-22T03:39:19.416Z,0.56
2023-01-22T03:41:46.193Z,0.45
2023-01-22T03:44:14.332Z,0.57
2023-01-22T03:46:41.195Z,0.64
2023-01-22T03:49:08.421Z,0.60
2023-01-22T03:51:35.372Z,0.59
2023-01-22T03:54:02.182Z,0.56
2023-01-22T03:56:28.976Z,0.62
2023-01-22T03:58:56.460Z,0.59
2023-01-22T04:01:25.094Z,0.56
2023-01-22T04:03:52.337Z,0.63
2023-01-22T04:06:19.532Z,0.47
2023-01-22T04:08:47.052Z,0.59
2023-01-22T04:11:14.031Z,0.63
2023-01-22T04:13:41.915Z,0.60
2023-01-22T04:16:08.972Z,0.64
2023-01-22T04:18:35.760Z,0.58
2023-01-22T04:21:02.602Z,0.58
2023-01-22T04:23:29.445Z,0.60
2023-01-22T04:25:56.257Z,0.59
2023-01-22T04:28:23.053Z,0.63
2023-01-22T04:30:51.616Z,0.63
2023-01-22T04:33:18.501Z,0.56
2023-01-22T04:35:45.418Z,0.47
2023-01-22T04:38:13.138Z,0.58
2023-01-22T04:40:40.154Z,0.56
2023-01-22T04:43:07.573Z,0.56
2023-01-22T04:45:34.435Z,0.54
2023-01-22T04:48:01.233Z,0.58
2023-01-22T04:50:30.583Z,0.57
2023-01-22T04:52:57.453Z,0.57
2023-01-22T04:55:24.621Z,0.58
2023-01-22T04:57:53.765Z,0.55
2023-01-22T05:00:20.817Z,0.55
2023-01-22T05:02:47.739Z,0.57
2023-01-22T05:05:14.671Z,0.53
2023-01-22T05:07:41.472Z,0.53
2023-01-22T05:10:08.916Z,0.53
2023-01-22T05:12:35.703Z,0.46
2023-01-22T05:15:05.493Z,0.51
2023-01-22T05:17:34.093Z,0.54
2023-01-22T05:20:01.667Z,0.52
2023-01-22T05:22:28.537Z,0.52
2023-01-22T05:24:55.574Z,0.51
2023-01-22T05:27:22.352Z,0.46
2023-01-22T05:29:49.178Z,0.53
2023-01-22T05:32:16.019Z,0.51
2023-01-22T05:34:42.832Z,0.54
2023-01-22T05:37:09.673Z,0.49
2023-01-22T05:39:36.453Z,0.50
2023-01-22T05:42:03.237Z,0.46
2023-01-22T05:44:31.329Z,0.51
2023-01-22T05:46:59.494Z,0.45
2023-01-22T05:49:26.282Z,0.49
2023-01-22T05:51:53.075Z,0.45
2023-01-22T05:54:19.893Z,0.44
2023-01-22T05:56:46.753Z,0.46
2023-01-22T05:59:13.642Z,0.45
2023-01-22T06:01:40.450Z,0.45
2023-01-22T06:04:07.381Z,0.46
2023-01-22T06:06:34.234Z,0.41
2023-01-22T06:09:01.055Z,0.45
2023-01-22T06:11:28.435Z,0.46
2023-01-22T06:13:55.236Z,0.47
2023-01-22T06:16:22.102Z,0.40
2023-01-22T06:18:48.933Z,0.41
2023-01-22T06:21:15.697Z,0.43
2023-01-22T06:23:42.556Z,0.45
2023-01-22T06:26:09.361Z,0.43
2023-01-22T06:28:36.175Z,0.45
2023-01-22T06:31:05.867Z,0.43
2023-01-22T06:33:34.675Z,0.43
2023-01-22T06:36:01.988Z,0.45
2023-01-22T06:38:28.947Z,0.40
2023-01-22T06:40:56.854Z,0.43
2023-01-22T06:43:23.995Z,0.37
2023-01-22T06:45:50.837Z,0.40
2023-01-22T06:48:17.676Z,0.41
2023-01-22T06:50:44.737Z,0.38
2023-01-22T06:53:11.818Z,0.36
2023-01-22T06:55:38.827Z,0.35
2023-01-22T06:58:05.659Z,0.38
2023-01-22T07:00:32.459Z,0.41
2023-01-22T07:02:59.294Z,0.38
2023-01-22T07:05:27.485Z,0.39
2023-01-22T07:07:55.268Z,0.43
2023-01-22T07:10:22.444Z,0.40
2023-01-22T07:12:49.890Z,0.39
2023-01-22T07:15:16.778Z,0.36
2023-01-22T07:17:43.540Z,0.41
2023-01-22T07:20:11.136Z,0.36
2023-01-22T07:22:37.937Z,0.39
2023-01-22T07:25:05.142Z,0.46
2023-01-22T07:27:32.702Z,0.46
2023-01-22T07:29:59.571Z,0.47
2023-01-22T07:32:26.493Z,0.44
2023-01-22T07:34:53.342Z,0.47
2023-01-22T07:37:20.118Z,0.46
2023-01-22T07:39:46.960Z,0.50
2023-01-22T07:42:14.037Z,0.52
2023-01-22T07:44:40.847Z,0.52
2023-01-22T07:47:07.796Z,0.54
2023-01-22T07:49:34.803Z,0.58
2023-01-22T07:52:01.661Z,0.56
2023-01-22T07:54:28.471Z,0.60
2023-01-22T07:56:55.255Z,0.61
2023-01-22T07:59:22.052Z,0.62
2023-01-22T08:01:48.925Z,0.57
2023-01-22T08:04:15.715Z,0.62
2023-01-22T08:06:42.477Z,0.68
2023-01-22T08:09:09.277Z,0.67
2023-01-22T08:11:36.067Z,0.66
2023-01-22T08:14:02.956Z,0.69
2023-01-22T08:16:29.785Z,0.69
2023-01-22T08:18:56.681Z,0.69
2023-01-22T08:21:23.510Z,0.76
2023-01-22T08:23:50.333Z,0.76
2023-01-22T08:26:17.209Z,0.80
2023-01-22T08:28:44.093Z,0.77
2023-01-22T08:31:19.377Z,0.80
2023-01-22T08:33:53.357Z,0.80
2023-01-22T08:36:20.121Z,0.79
2023-01-22T08:38:46.897Z,0.79
2023-01-22T08:41:13.699Z,0.82
2023-01-22T08:43:40.475Z,0.80
2023-01-22T08:46:07.474Z,0.81
2023-01-22T08:48:34.393Z,0.86
2023-01-22T08:51:01.395Z,0.84
2023-01-22T08:53:28.567Z,0.83
2023-01-22T08:55:55.342Z,0.87
2023-01-22T08:58:22.428Z,0.81
2023-01-22T09:00:49.333Z,0.88
2023-01-22T09:03:16.155Z,0.94
2023-01-22T09:05:43.036Z,0.90
2023-01-22T09:08:09.875Z,0.94
2023-01-22T09:10:36.657Z,1.02
2023-01-22T09:13:03.455Z,1.05
2023-01-22T09:15:30.319Z,1.09
2023-01-22T09:17:57.125Z,1.12
2023-01-22T09:20:24.017Z,1.18
2023-01-22T09:22:50.935Z,1.14
2023-01-22T09:25:17.754Z,1.15
2023-01-22T09:27:44.532Z,1.23
2023-01-22T09:30:12.533Z,1.23
2023-01-22T09:32:39.314Z,1.29
2023-01-22T09:35:06.915Z,1.25
2023-01-22T09:37:33.756Z,1.35
2023-01-22T09:40:00.524Z,1.37
2023-01-22T09:42:31.366Z,1.37
2023-01-22T09:45:04.357Z,1.43
2023-01-22T09:47:41.670Z,1.40
2023-01-22T09:50:19.516Z,1.49
2023-01-22T09:52:46.884Z,1.52
2023-01-22T09:55:15.081Z,1.50
2023-01-22T09:57:48.107Z,1.53
2023-01-22T10:00:27.216Z,1.51
2023-01-22T10:02:59.054Z,1.54
2023-01-22T10:05:46.515Z,1.61
2023-01-22T10:08:21.516Z,1.62
2023-01-22T10:10:48.575Z,1.61
2023-01-22T10:13:31.934Z,1.69
2023-01-22T10:15:58.834Z,1.72
2023-01-22T10:18:46.793Z,1.77
2023-01-22T10:21:24.214Z,1.73
2023-01-22T10:23:51.294Z,1.79
2023-01-22T10:26:25.434Z,1.83
2023-01-22T10:28:56.975Z,1.88
2023-01-22T10:31:29.308Z,1.90
2023-01-22T10:34:20.677Z,1.98
2023-01-22T10:36:51.862Z,2.05
2023-01-22T10:39:18.840Z,2.05
2023-01-22T10:41:46.529Z,2.13
2023-01-22T10:44:16.055Z,2.23
2023-01-22T10:46:42.938Z,2.25
2023-01-22T10:49:18.578Z,2.31
2023-01-22T10:51:55.763Z,2.31
2023-01-22T10:54:25.376Z,2.44
2023-01-22T10:56:52.492Z,2.44
2023-01-22T10:59:26.879Z,2.54
2023-01-22T11:01:58.594Z,2.55
2023-01-22T11:04:31.096Z,2.55
2023-01-22T11:07:08.440Z,2.64
2023-01-22T11:09:55.675Z,2.66
2023-01-22T11:12:31.384Z,2.62
2023-01-22T11:15:06.316Z,2.67
2023-01-22T11:17:45.019Z,2.66
2023-01-22T11:20:26.099Z,2.62
2023-01-22T11:23:11.431Z,2.71
2023-01-22T11:26:15.492Z,2.70
2023-01-22T11:28:46.259Z,2.69
2023-01-22T11:31:16.012Z,2.73
2023-01-22T11:34:22.556Z,2.71
2023-01-22T11:37:00.657Z,2.75
2023-01-22T11:39:49.164Z,2.76
2023-01-22T11:42:45.240Z,2.77
2023-01-22T11:45:18.133Z,2.80
2023-01-22T11:48:23.384Z,2.82
2023-01-22T11:51:03.078Z,2.78
2023-01-22T11:53:48.515Z,2.81
2023-01-22T11:56:34.382Z,2.80
2023-01-22T11:59:32.238Z,2.78
2023-01-22T12:02:23.307Z,2.81
2023-01-22T12:05:13.376Z,2.76
2023-01-22T12:07:58.276Z,2.74
2023-01-22T12:10:25.211Z,2.73
2023-01-22T12:13:01.223Z,2.68
2023-01-22T12:15:44.756Z,2.73
2023-01-22T12:18:26.132Z,2.61
2023-01-22T12:21:04.599Z,2.63
2023-01-22T12:23:34.495Z,2.65
2023-01-22T12:26:24.116Z,2.61
2023-01-22T12:28:56.747Z,2.67
2023-01-22T12:32:09.061Z,2.65
2023-01-22T12:34:41.934Z,2.61
2023-01-22T12:37:10.936Z,2.67
2023-01-22T12:39:50.997Z,2.71
2023-01-22T12:42:38.732Z,2.75
2023-01-22T12:45:05.452Z,2.76
2023-01-22T12:47:42.694Z,2.74
2023-01-22T12:50:23.297Z,2.72
2023-01-22T12:53:06.522Z,2.74
2023-01-22T12:55:46.414Z,2.72
2023-01-22T12:58:23.750Z,2.73
2023-01-22T13:01:09.422Z,2.72
2023-01-22T13:03:36.405Z,2.68
2023-01-22T13:06:04.516Z,2.66
2023-01-22T13:08:43.800Z,2.61
2023-01-22T13:11:14.980Z,2.54
2023-01-22T13:14:31.066Z,2.56
2023-01-22T13:17:03.672Z,2.53
2023-01-22T13:19:39.575Z,2.46
2023-01-22T13:22:08.163Z,2.39
2023-01-22T13:24:34.934Z,2.38
2023-01-22T13:27:02.617Z,2.38
2023-01-22T13:29:34.237Z,2.32
2023-01-22T13:32:06.758Z,2.28
2023-01-22T13:34:33.566Z,2.26
2023-01-22T13:37:00.387Z,2.19
2023-01-22T13:39:29.904Z,2.19
2023-01-22T13:41:58.556Z,2.20
2023-01-22T13:44:28.635Z,2.13
2023-01-22T13:46:55.505Z,2.13
2023-01-22T13:49:30.040Z,2.07
2023-01-22T13:51:58.536Z,2.07
2023-01-22T13:54:36.292Z,2.05
2023-01-22T13:57:03.200Z,2.01
2023-01-22T13:59:35.107Z,1.94
2023-01-22T14:02:24.332Z,1.98
2023-01-22T14:04:51.359Z,1.94
2023-01-22T14:07:38.498Z,1.93
2023-01-22T14:10:24.417Z,1.85
2023-01-22T14:13:11.188Z,1.84
2023-01-22T14:15:38.511Z,1.81
2023-01-22T14:18:17.955Z,1.79
2023-01-22T14:20:46.019Z,1.71
2023-01-22T14:23:12.983Z,1.66
2023-01-22T14:25:40.832Z,1.64
2023-01-22T14:28:07.707Z,1.58
2023-01-22T14:30:34.596Z,1.60
2023-01-22T14:33:01.420Z,1.57
2023-01-22T14:35:29.555Z,1.56
2023-01-22T14:37:56.514Z,1.49
2023-01-22T14:40:25.515Z,1.43
2023-01-22T14:42:52.458Z,1.42
2023-01-22T14:45:21.639Z,1.36
2023-01-22T14:47:52.356Z,1.33
2023-01-22T14:50:20.231Z,1.32
2023-01-22T14:52:47.916Z,1.24
2023-01-22T14:55:14.840Z,1.22
2023-01-22T14:57:41.695Z,1.23
2023-01-22T15:00:09.309Z,1.16
2023-01-22T15:02:39.906Z,1.14
2023-01-22T15:05:07.446Z,1.08
2023-01-22T15:07:34.412Z,1.10
2023-01-22T15:10:02.104Z,1.10
2023-01-22T15:12:28.935Z,1.06
2023-01-22T15:14:55.696Z,1.05
2023-01-22T15:17:22.564Z,1.04
2023-01-22T15:19:49.394Z,1.00
2023-01-22T15:22:16.405Z,1.01
2023-01-22T15:24:44.077Z,0.98
2023-01-22T15:27:11.384Z,0.92
2023-01-22T15:29:38.261Z,0.94
2023-01-22T15:32:05.239Z,0.90
2023-01-22T15:34:32.016Z,0.91
2023-01-22T15:36:58.816Z,0.91
2023-01-22T15:39:25.713Z,0.91
2023-01-22T15:41:52.576Z,0.81
2023-01-22T15:44:19.353Z,0.86
2023-01-22T15:46:46.456Z,0.82
2023-01-22T15:49:13.365Z,0.80
2023-01-22T15:51:41.003Z,0.81
2023-01-22T15:54:08.608Z,0.81
2023-01-22T15:56:37.089Z,0.78
2023-01-22T15:59:04.599Z,0.80
2023-01-22T16:01:31.624Z,0.74
2023-01-22T16:03:58.537Z,0.80
2023-01-22T16:06:26.537Z,0.75
2023-01-22T16:08:54.863Z,0.76
2023-01-22T16:11:21.841Z,0.73
2023-01-22T16:13:48.728Z,0.71
2023-01-22T16:16:23.466Z,0.69
2023-01-22T16:18:50.661Z,0.71
2023-01-22T16:21:17.801Z,0.67
2023-01-22T16:23:45.966Z,0.63
2023-01-22T16:26:17.478Z,0.67
2023-01-22T16:28:45.294Z,0.63
2023-01-22T16:31:15.949Z,0.57
2023-01-22T16:33:44.743Z,0.60
2023-01-22T16:36:14.221Z,0.55
2023-01-22T16:38:41.061Z,0.59
2023-01-22T16:41:28.024Z,0.63
2023-01-22T16:43:59.441Z,0.62
2023-01-22T16:46:28.622Z,0.49
2023-01-22T16:49:00.364Z,0.58
2023-01-22T16:51:28.123Z,0.53
2023-01-22T16:53:55.265Z,0.54
2023-01-22T16:56:22.184Z,0.56
2023-01-22T16:58:48.993Z,0.53
2023-01-22T17:01:15.988Z,0.51
2023-01-22T17:03:42.934Z,0.50
2023-01-22T17:06:24.458Z,0.47
2023-01-22T17:08:51.973Z,0.45
2023-01-22T17:11:18.859Z,0.43
2023-01-22T17:13:45.894Z,0.44
2023-01-22T17:16:12.748Z,0.46
2023-01-22T17:18:39.832Z,0.42
2023-01-22T17:21:07.383Z,0.43
2023-01-22T17:23:34.251Z,0.45
2023-01-22T17:26:05.549Z,0.44
2023-01-22T17:28:32.779Z,0.43
2023-01-22T17:30:59.660Z,0.37
2023-01-22T17:33:26.520Z,0.42
2023-01-22T17:35:58.295Z,0.36
2023-01-22T17:38:25.132Z,0.41
2023-01-22T17:40:51.895Z,0.37
2023-01-22T17:43:18.683Z,0.39
2023-01-22T17:45:45.473Z,0.40
2023-01-22T17:48:12.243Z,0.41
2023-01-22T17:50:39.033Z,0.41
2023-01-22T17:53:05.812Z,0.42
2023-01-22T17:55:32.835Z,0.39
2023-01-22T17:57:59.973Z,0.40
2023-01-22T18:00:26.821Z,0.37
2023-01-22T18:02:53.730Z,0.37
2023-01-22T18:05:21.482Z,0.37
2023-01-22T18:07:48.357Z,0.36
2023-01-22T18:10:15.393Z,0.33
2023-01-22T18:12:42.376Z,0.39
2023-01-22T18:15:09.675Z,0.40
2023-01-22T18:17:36.497Z,0.38
2023-01-22T18:20:04.093Z,0.33
2023-01-22T18:22:30.918Z,0.35
2023-01-22T18:24:59.170Z,0.34
2023-01-22T18:27:26.137Z,0.36
2023-01-22T18:29:52.973Z,0.35
2023-01-22T18:32:19.756Z,0.36
2023-01-22T18:34:46.961Z,0.35
2023-01-22T18:37:13.779Z,0.34
2023-01-22T18:39:40.879Z,0.38
2023-01-22T18:42:07.749Z,0.36
2023-01-22T18:44:34.539Z,0.30
2023-01-22T18:47:01.866Z,0.36
2023-01-22T18:49:29.108Z,0.33
2023-01-22T18:51:59.378Z,0.31
2023-01-22T18:54:26.299Z,0.33
2023-01-22T18:56:53.122Z,0.28
2023-01-22T18:59:19.934Z,0.32
2023-01-22T19:01:51.778Z,0.33
2023-01-22T19:04:21.888Z,0.28
2023-01-22T19:06:53.158Z,0.29
2023-01-22T19:09:20.186Z,0.29
2023-01-22T19:11:47.787Z,0.24
2023-01-22T19:14:18.870Z,0.27
2023-01-22T19:16:48.461Z,0.27
2023-01-22T19:19:16.067Z,0.22
2023-01-22T19:21:47.284Z,0.21
2023-01-22T19:24:15.611Z,0.29
2023-01-22T19:26:42.654Z,0.23
2023-01-22T19:29:14.584Z,0.26
2023-01-22T19:31:43.316Z,0.27
2023-01-22T19:34:12.185Z,0.23
2023-01-22T19:36:39.157Z,0.22
2023-01-22T19:39:09.836Z,0.19
2023-01-22T19:41:37.733Z,0.21
2023-01-22T19:44:04.824Z,0.20
2023-01-22T19:46:31.825Z,0.20
2023-01-22T19:48:59.207Z,0.15
2023-01-22T19:51:27.383Z,0.20
2023-01-22T19:53:54.774Z,0.18
2023-01-22T19:56:26.315Z,0.21
2023-01-22T19:58:56.737Z,0.20
2023-01-22T20:01:23.523Z,0.15
2023-01-22T20:03:50.483Z,0.21
2023-01-22T20:06:18.211Z,0.21
2023-01-22T20:08:46.020Z,0.18
2023-01-22T20:11:13.222Z,0.19
2023-01-22T20:13:40.195Z,0.19
2023-01-22T20:16:07.357Z,0.17
2023-01-22T20:18:34.292Z,0.19
2023-01-22T20:21:02.050Z,0.16
2023-01-22T20:23:29.035Z,0.17
2023-01-22T20:25:56.115Z,0.16
2023-01-22T20:28:23.089Z,0.17
2023-01-22T20:31:00.161Z,0.16
2023-01-22T20:33:27.164Z,0.15
2023-01-22T20:35:58.110Z,0.20
2023-01-22T20:38:25.140Z,0.15
2023-01-22T20:40:52.057Z,0.19
2023-01-22T20:43:19.947Z,0.19
2023-01-22T20:46:01.357Z,0.17
2023-01-22T20:48:29.268Z,0.19
2023-01-22T20:50:56.112Z,0.21
2023-01-22T20:53:23.717Z,0.14
2023-01-22T20:56:09.521Z,0.20
2023-01-22T20:58:36.553Z,0.18
2023-01-22T21:01:08.354Z,0.18
2023-01-22T21:03:35.351Z,0.17
2023-01-22T21:06:06.624Z,0.10
2023-01-22T21:08:34.200Z,0.14
2023-01-22T21:11:04.201Z,0.18
2023-01-22T21:13:31.054Z,0.15
2023-01-22T21:15:58.095Z,0.12
2023-01-22T21:18:25.113Z,0.13
2023-01-22T21:20:51.924Z,0.17
2023-01-22T21:23:18.784Z,0.17
2023-01-22T21:25:45.654Z,0.19
2023-01-22T21:28:12.518Z,0.18
2023-01-22T21:30:39.516Z,0.15
2023-01-22T21:33:06.476Z,0.15
2023-01-22T21:35:33.308Z,0.19
2023-01-22T21:38:00.093Z,0.16
2023-01-22T21:40:26.991Z,0.16
2023-01-22T21:43:12.016Z,0.12
2023-01-22T21:45:59.721Z,0.14
2023-01-22T21:48:28.944Z,0.11
2023-01-22T21:50:55.995Z,0.09
2023-01-22T21:53:22.880Z,0.11
2023-01-22T21:55:53.075Z,0.11
2023-01-22T21:58:20.822Z,0.13
2023-01-22T22:00:47.643Z,0.10
2023-01-22T22:03:16.131Z,0.10
2023-01-22T22:05:43.030Z,0.11
2023-01-22T22:08:09.920Z,0.09
2023-01-22T22:10:36.767Z,0.06
2023-01-22T22:13:03.897Z,0.12
2023-01-22T22:15:30.703Z,0.12
2023-01-22T22:17:57.617Z,0.12
2023-01-22T22:20:24.425Z,0.09
2023-01-22T22:22:51.237Z,0.09
2023-01-22T22:25:18.187Z,0.09
2023-01-22T22:27:45.131Z,0.00
2023-01-22T22:30:12.587Z,0.06
2023-01-22T22:32:39.403Z,0.07
2023-01-22T22:35:06.719Z,0.09
2023-01-22T22:37:33.587Z,0.05
2023-01-22T22:40:00.409Z,0.06
2023-01-22T22:42:27.419Z,0.06
2023-01-22T22:44:54.240Z,0.06
2023-01-22T22:47:21.074Z,0.04
2023-01-22T22:49:47.901Z,0.08
2023-01-22T22:52:14.854Z,0.05
2023-01-22T22:54:41.694Z,0.05
2023-01-22T22:57:08.508Z,0.06
2023-01-22T22:59:35.290Z,0.05
2023-01-22T23:02:02.100Z,0.05
2023-01-22T23:04:28.970Z,0.01
2023-01-22T23:06:55.909Z,-0.01
2023-01-22T23:09:22.910Z,0.06
2023-01-22T23:11:52.247Z,0.05
2023-01-22T23:14:19.197Z,0.00
2023-01-22T23:16:46.197Z,0.04
2023-01-22T23:19:15.558Z,0.02
2023-01-22T23:21:42.328Z,-0.01
2023-01-22T23:24:10.260Z,-0.03
2023-01-22T23:26:37.191Z,0.03
2023-01-22T23:29:05.254Z,0.02
2023-01-22T23:31:33.098Z,0.03
2023-01-22T23:34:00.782Z,0.01
2023-01-22T23:36:27.600Z,-0.07
2023-01-22T23:38:54.648Z,-0.02
2023-01-22T23:41:21.591Z,-0.03
2023-01-22T23:43:48.494Z,-0.06
2023-01-22T23:46:17.442Z,-0.05
2023-01-22T23:48:44.334Z,-0.01
2023-01-22T23:51:12.445Z,-0.03
2023-01-22T23:53:40.397Z,-0.02
2023-01-22T23:56:07.635Z,-0.03
2023-01-22T23:58:34.529Z,-0.02
